createdAt,value
2023-12-30T00:00:18.033Z,17.46
2023-12-30T00:01:08.168Z,17.46
2023-12-30T00:02:07.132Z,17.45
2023-12-30T00:03:07.213Z,17.47
2023-12-30T00:04:07.361Z,17.47
2023-12-30T00:05:07.299Z,17.47
2023-12-30T00:06:07.284Z,17.47
2023-12-30T00:07:07.304Z,17.47
2023-12-30T00:08:07.326Z,17.47
2023-12-30T00:09:07.370Z,17.47
2023-12-30T00:10:07.484Z,17.47
2023-12-30T00:11:07.562Z,17.46
2023-12-30T00:12:07.630Z,17.46
2023-12-30T00:13:07.734Z,17.46
2023-12-30T00:14:07.827Z,17.46
2023-12-30T00:15:07.961Z,17.46
2023-12-30T00:16:08.038Z,17.46
2023-12-30T00:17:08.091Z,17.46
2023-12-30T00:18:08.281Z,17.47
2023-12-30T00:19:08.341Z,17.46
2023-12-30T00:20:08.378Z,17.47
2023-12-30T00:21:08.438Z,17.46
2023-12-30T00:22:08.537Z,17.46
2023-12-30T00:23:08.625Z,17.47
2023-12-30T00:24:08.825Z,17.47
2023-12-30T00:25:08.873Z,17.46
2023-12-30T00:26:08.899Z,17.46
2023-12-30T00:27:08.977Z,17.46
2023-12-30T00:28:09.122Z,17.46
2023-12-30T00:29:09.168Z,17.46
2023-12-30T00:30:09.294Z,17.46
2023-12-30T00:31:09.418Z,17.46
2023-12-30T00:32:09.451Z,17.46
2023-12-30T00:33:09.589Z,17.46
2023-12-30T00:34:09.724Z,17.47
2023-12-30T00:35:09.697Z,17.46
2023-12-30T00:36:09.804Z,17.46
2023-12-30T00:37:09.936Z,17.45
2023-12-30T00:38:09.973Z,17.46
2023-12-30T00:39:10.052Z,17.46
2023-12-30T00:40:10.241Z,17.45
2023-12-30T00:41:10.514Z,17.46
2023-12-30T00:42:10.327Z,17.46
2023-12-30T00:43:10.425Z,17.46
2023-12-30T00:44:10.546Z,17.46
2023-12-30T00:45:10.587Z,17.45
2023-12-30T00:46:10.707Z,17.45
2023-12-30T00:47:10.780Z,17.45
2023-12-30T00:48:10.989Z,17.45
2023-12-30T00:49:11.351Z,17.46
2023-12-30T00:50:11.067Z,17.45
2023-12-30T00:51:11.171Z,17.45
2023-12-30T00:52:11.292Z,17.45
2023-12-30T00:53:11.334Z,17.45
2023-12-30T00:54:11.436Z,17.45
2023-12-30T00:55:11.551Z,17.45
2023-12-30T00:56:11.665Z,17.45
2023-12-30T00:57:11.714Z,17.45
2023-12-30T00:58:11.893Z,17.45
2023-12-30T00:59:11.894Z,17.45
2023-12-30T01:00:11.986Z,17.45
2023-12-30T01:01:12.182Z,17.45
2023-12-30T01:02:12.222Z,17.45
2023-12-30T01:03:12.287Z,17.45
2023-12-30T01:04:12.434Z,17.44
2023-12-30T01:05:12.561Z,17.44
2023-12-30T01:06:12.521Z,17.44
2023-12-30T01:07:12.668Z,17.44
2023-12-30T01:08:12.737Z,17.44
2023-12-30T01:09:12.813Z,17.44
2023-12-30T01:10:12.955Z,17.44
2023-12-30T01:11:12.996Z,17.44
2023-12-30T01:12:13.065Z,17.44
2023-12-30T01:13:13.214Z,17.44
2023-12-30T01:14:13.264Z,17.44
2023-12-30T01:15:13.344Z,17.44
2023-12-30T01:16:13.496Z,17.44
2023-12-30T01:17:13.538Z,17.44
2023-12-30T01:18:13.669Z,17.44
2023-12-30T01:19:13.844Z,17.43
2023-12-30T01:20:13.820Z,17.44
2023-12-30T01:21:13.880Z,17.44
2023-12-30T01:22:13.990Z,17.44
2023-12-30T01:23:14.072Z,17.43
2023-12-30T01:24:14.161Z,17.44
2023-12-30T01:25:14.275Z,17.45
2023-12-30T01:26:14.336Z,17.44
2023-12-30T01:27:14.451Z,17.44
2023-12-30T01:28:14.578Z,17.44
2023-12-30T01:29:14.619Z,17.43
2023-12-30T01:30:14.751Z,17.44
2023-12-30T01:31:14.856Z,17.44
2023-12-30T01:32:14.913Z,17.43
2023-12-30T01:33:15.081Z,17.43
2023-12-30T01:34:15.207Z,17.43
2023-12-30T01:35:15.195Z,17.44
2023-12-30T01:36:15.292Z,17.44
2023-12-30T01:37:15.451Z,17.43
2023-12-30T01:38:15.461Z,17.43
2023-12-30T01:39:15.559Z,17.43
2023-12-30T01:40:15.740Z,17.43
2023-12-30T01:41:15.748Z,17.43
2023-12-30T01:42:15.925Z,17.43
2023-12-30T01:43:15.955Z,17.43
2023-12-30T01:44:16.047Z,17.43
2023-12-30T01:45:16.145Z,17.42
2023-12-30T01:46:16.262Z,17.43
2023-12-30T01:47:16.373Z,17.43
2023-12-30T01:48:16.518Z,17.43
2023-12-30T01:49:16.533Z,17.43
2023-12-30T01:50:16.616Z,17.43
2023-12-30T01:51:24.765Z,17.43
2023-12-30T01:52:17.751Z,17.42
2023-12-30T01:53:16.792Z,17.43
2023-12-30T01:54:16.796Z,17.42
2023-12-30T01:55:16.876Z,17.42
2023-12-30T01:56:16.840Z,17.43
2023-12-30T01:57:16.881Z,17.43
2023-12-30T01:58:16.929Z,17.43
2023-12-30T01:59:16.988Z,17.43
2023-12-30T02:00:17.003Z,17.42
2023-12-30T02:01:17.170Z,17.43
2023-12-30T02:02:17.246Z,17.42
2023-12-30T02:03:17.285Z,17.42
2023-12-30T02:04:17.367Z,17.43
2023-12-30T02:05:17.569Z,17.42
2023-12-30T02:06:17.563Z,17.43
2023-12-30T02:07:17.664Z,17.42
2023-12-30T02:08:17.806Z,17.43
2023-12-30T02:09:17.843Z,17.43
2023-12-30T02:10:18.019Z,17.43
2023-12-30T02:11:18.039Z,17.43
2023-12-30T02:12:18.127Z,17.43
2023-12-30T02:13:18.221Z,17.43
2023-12-30T02:14:18.299Z,17.43
2023-12-30T02:15:18.394Z,17.43
2023-12-30T02:16:18.540Z,17.43
2023-12-30T02:17:18.575Z,17.43
2023-12-30T02:18:18.921Z,17.43
2023-12-30T02:19:18.946Z,17.42
2023-12-30T02:20:18.932Z,17.42
2023-12-30T02:21:18.961Z,17.42
2023-12-30T02:22:19.102Z,17.43
2023-12-30T02:23:19.165Z,17.42
2023-12-30T02:24:19.271Z,17.43
2023-12-30T02:25:19.416Z,17.42
2023-12-30T02:26:19.442Z,17.42
2023-12-30T02:27:19.535Z,17.42
2023-12-30T02:28:19.671Z,17.41
2023-12-30T02:29:19.750Z,17.42
2023-12-30T02:30:19.845Z,17.42
2023-12-30T02:31:19.978Z,17.42
2023-12-30T02:32:20.010Z,17.41
2023-12-30T02:33:20.178Z,17.42
2023-12-30T02:34:20.394Z,17.42
2023-12-30T02:35:20.303Z,17.42
2023-12-30T02:36:20.453Z,17.41
2023-12-30T02:37:20.528Z,17.42
2023-12-30T02:38:20.601Z,17.42
2023-12-30T02:39:20.692Z,17.42
2023-12-30T02:40:20.819Z,17.41
2023-12-30T02:41:20.879Z,17.42
2023-12-30T02:42:20.973Z,17.42
2023-12-30T02:43:21.085Z,17.41
2023-12-30T02:44:21.166Z,17.42
2023-12-30T02:45:21.266Z,17.42
2023-12-30T02:46:21.381Z,17.42
2023-12-30T02:47:21.476Z,17.41
2023-12-30T02:48:21.630Z,17.41
2023-12-30T02:49:21.764Z,17.41
2023-12-30T02:50:21.743Z,17.41
2023-12-30T02:51:21.842Z,17.42
2023-12-30T02:52:21.929Z,17.41
2023-12-30T02:53:22.031Z,17.41
2023-12-30T02:54:22.176Z,17.41
2023-12-30T02:55:22.234Z,17.41
2023-12-30T02:56:22.307Z,17.41
2023-12-30T02:57:22.472Z,17.41
2023-12-30T02:58:22.563Z,17.41
2023-12-30T02:59:22.609Z,17.40
2023-12-30T03:00:22.699Z,17.41
2023-12-30T03:01:22.838Z,17.41
2023-12-30T03:02:22.924Z,17.41
2023-12-30T03:03:22.975Z,17.41
2023-12-30T03:04:23.240Z,17.41
2023-12-30T03:05:23.261Z,17.40
2023-12-30T03:06:23.376Z,17.41
2023-12-30T03:07:23.396Z,17.40
2023-12-30T03:08:23.467Z,17.40
2023-12-30T03:09:23.576Z,17.41
2023-12-30T03:10:23.763Z,17.40
2023-12-30T03:11:23.757Z,17.41
2023-12-30T03:12:23.846Z,17.41
2023-12-30T03:13:24.069Z,17.40
2023-12-30T03:14:24.031Z,17.40
2023-12-30T03:15:24.129Z,17.40
2023-12-30T03:16:24.270Z,17.40
2023-12-30T03:17:24.331Z,17.40
2023-12-30T03:18:24.483Z,17.40
2023-12-30T03:19:24.535Z,17.40
2023-12-30T03:20:24.609Z,17.40
2023-12-30T03:21:24.742Z,17.40
2023-12-30T03:22:24.844Z,17.40
2023-12-30T03:23:24.909Z,17.40
2023-12-30T03:24:25.044Z,17.40
2023-12-30T03:25:25.119Z,17.40
2023-12-30T03:26:25.207Z,17.40
2023-12-30T03:27:25.305Z,17.40
2023-12-30T03:28:25.421Z,17.40
2023-12-30T03:29:25.505Z,17.40
2023-12-30T03:30:25.646Z,17.39
2023-12-30T03:31:25.784Z,17.40
2023-12-30T03:32:25.807Z,17.39
2023-12-30T03:33:26.082Z,17.39
2023-12-30T03:34:26.032Z,17.39
2023-12-30T03:35:26.091Z,17.39
2023-12-30T03:36:26.217Z,17.39
2023-12-30T03:37:26.363Z,17.39
2023-12-30T03:38:26.405Z,17.39
2023-12-30T03:39:26.503Z,17.39
2023-12-30T03:40:26.632Z,17.39
2023-12-30T03:41:26.709Z,17.39
2023-12-30T03:42:26.814Z,17.39
2023-12-30T03:43:26.954Z,17.39
2023-12-30T03:44:27.008Z,17.40
2023-12-30T03:45:27.106Z,17.39
2023-12-30T03:46:27.328Z,17.39
2023-12-30T03:47:27.338Z,17.39
2023-12-30T03:48:27.470Z,17.39
2023-12-30T03:49:27.708Z,17.39
2023-12-30T03:50:27.609Z,17.39
2023-12-30T03:51:27.708Z,17.39
2023-12-30T03:52:27.917Z,17.39
2023-12-30T03:53:27.900Z,17.39
2023-12-30T03:54:27.994Z,17.39
2023-12-30T03:55:28.129Z,17.39
2023-12-30T03:56:28.201Z,17.39
2023-12-30T03:57:28.306Z,17.39
2023-12-30T03:58:28.489Z,17.38
2023-12-30T03:59:28.503Z,17.39
2023-12-30T04:00:28.588Z,17.39
2023-12-30T04:01:28.743Z,17.39
2023-12-30T04:02:28.860Z,17.39
2023-12-30T04:03:28.889Z,17.39
2023-12-30T04:04:29.047Z,17.39
2023-12-30T04:05:29.121Z,17.38
2023-12-30T04:06:29.223Z,17.39
2023-12-30T04:07:29.344Z,17.39
2023-12-30T04:08:29.400Z,17.39
2023-12-30T04:09:29.559Z,17.38
2023-12-30T04:10:29.655Z,17.39
2023-12-30T04:11:29.743Z,17.39
2023-12-30T04:12:29.818Z,17.39
2023-12-30T04:13:29.970Z,17.38
2023-12-30T04:14:30.011Z,17.39
2023-12-30T04:15:30.092Z,17.39
2023-12-30T04:16:30.288Z,17.37
2023-12-30T04:17:30.303Z,17.38
2023-12-30T04:18:30.414Z,17.38
2023-12-30T04:19:30.572Z,17.39
2023-12-30T04:20:30.578Z,17.38
2023-12-30T04:21:30.681Z,17.38
2023-12-30T04:22:30.812Z,17.38
2023-12-30T04:23:30.876Z,17.38
2023-12-30T04:24:30.965Z,17.39
2023-12-30T04:25:31.104Z,17.38
2023-12-30T04:26:31.168Z,17.37
2023-12-30T04:27:31.277Z,17.38
2023-12-30T04:28:31.432Z,17.37
2023-12-30T04:29:31.462Z,17.38
2023-12-30T04:30:31.582Z,17.37
2023-12-30T04:31:31.674Z,17.38
2023-12-30T04:32:31.766Z,17.37
2023-12-30T04:33:31.955Z,17.37
2023-12-30T04:34:31.975Z,17.38
2023-12-30T04:35:32.053Z,17.37
2023-12-30T04:36:32.155Z,17.37
2023-12-30T04:37:32.322Z,17.38
2023-12-30T04:38:32.356Z,17.37
2023-12-30T04:39:32.464Z,17.37
2023-12-30T04:40:32.639Z,17.36
2023-12-30T04:41:32.699Z,17.37
2023-12-30T04:42:32.770Z,17.37
2023-12-30T04:43:32.955Z,17.37
2023-12-30T04:44:32.967Z,17.37
2023-12-30T04:45:33.070Z,17.37
2023-12-30T04:46:33.184Z,17.37
2023-12-30T04:47:33.293Z,17.37
2023-12-30T04:48:33.377Z,17.37
2023-12-30T04:49:33.561Z,17.37
2023-12-30T04:50:33.586Z,17.37
2023-12-30T04:51:33.654Z,17.36
2023-12-30T04:52:33.802Z,17.37
2023-12-30T04:53:33.851Z,17.37
2023-12-30T04:54:33.957Z,17.36
2023-12-30T04:55:34.102Z,17.36
2023-12-30T04:56:34.224Z,17.36
2023-12-30T04:57:34.269Z,17.37
2023-12-30T04:58:34.373Z,17.36
2023-12-30T04:59:34.452Z,17.37
2023-12-30T05:00:34.624Z,17.36
2023-12-30T05:01:34.737Z,17.36
2023-12-30T05:02:34.753Z,17.36
2023-12-30T05:03:34.887Z,17.36
2023-12-30T05:04:34.989Z,17.36
2023-12-30T05:05:42.411Z,17.34
2023-12-30T05:06:42.343Z,17.35
2023-12-30T05:07:42.358Z,17.35
2023-12-30T05:08:42.363Z,17.35
2023-12-30T05:09:42.377Z,17.35
2023-12-30T05:10:42.455Z,17.35
2023-12-30T05:11:42.482Z,17.35
2023-12-30T05:12:42.432Z,17.36
2023-12-30T05:13:42.516Z,17.36
2023-12-30T05:14:42.451Z,17.36
2023-12-30T05:15:42.469Z,17.36
2023-12-30T05:16:42.519Z,17.35
2023-12-30T05:17:42.683Z,17.36
2023-12-30T05:18:42.569Z,17.36
2023-12-30T05:19:42.594Z,17.36
2023-12-30T05:20:42.537Z,17.35
2023-12-30T05:21:43.036Z,17.35
2023-12-30T05:22:42.569Z,17.36
2023-12-30T05:23:42.568Z,17.35
2023-12-30T05:24:42.584Z,17.35
2023-12-30T05:25:42.647Z,17.35
2023-12-30T05:26:42.703Z,17.35
2023-12-30T05:27:42.628Z,17.35
2023-12-30T05:28:42.640Z,17.35
2023-12-30T05:29:42.655Z,17.35
2023-12-30T05:30:42.705Z,17.35
2023-12-30T05:31:42.737Z,17.34
2023-12-30T05:32:42.737Z,17.35
2023-12-30T05:33:42.721Z,17.35
2023-12-30T05:34:42.804Z,17.35
2023-12-30T05:35:42.731Z,17.35
2023-12-30T05:36:42.735Z,17.35
2023-12-30T05:37:42.747Z,17.35
2023-12-30T05:38:42.763Z,17.34
2023-12-30T05:39:42.782Z,17.35
2023-12-30T05:40:42.846Z,17.35
2023-12-30T05:41:42.806Z,17.35
2023-12-30T05:42:42.833Z,17.35
2023-12-30T05:43:42.959Z,17.35
2023-12-30T05:44:42.858Z,17.35
2023-12-30T05:45:42.873Z,17.34
2023-12-30T05:46:42.985Z,17.35
2023-12-30T05:47:42.924Z,17.35
2023-12-30T05:48:42.972Z,17.35
2023-12-30T05:49:42.969Z,17.34
2023-12-30T05:50:42.963Z,17.34
2023-12-30T05:51:42.989Z,17.34
2023-12-30T05:52:43.003Z,17.35
2023-12-30T05:53:43.015Z,17.35
2023-12-30T05:54:43.032Z,17.36
2023-12-30T05:55:43.128Z,17.35
2023-12-30T05:56:43.066Z,17.35
2023-12-30T05:57:43.091Z,17.34
2023-12-30T05:58:43.085Z,17.35
2023-12-30T05:59:43.125Z,17.35
2023-12-30T06:00:43.124Z,17.35
2023-12-30T06:01:43.205Z,17.35
2023-12-30T06:02:43.149Z,17.35
2023-12-30T06:03:43.175Z,17.35
2023-12-30T06:04:43.205Z,17.34
2023-12-30T06:05:43.197Z,17.34
2023-12-30T06:06:43.187Z,17.34
2023-12-30T06:07:43.231Z,17.34
2023-12-30T06:08:43.217Z,17.35
2023-12-30T06:09:43.254Z,17.34
2023-12-30T06:10:43.326Z,17.34
2023-12-30T06:11:43.268Z,17.34
2023-12-30T06:12:43.292Z,17.34
2023-12-30T06:13:43.350Z,17.33
2023-12-30T06:14:43.379Z,17.33
2023-12-30T06:15:43.339Z,17.34
2023-12-30T06:16:43.346Z,17.33
2023-12-30T06:17:43.395Z,17.33
2023-12-30T06:18:43.464Z,17.33
2023-12-30T06:19:43.428Z,17.34
2023-12-30T06:20:43.374Z,17.33
2023-12-30T06:21:43.387Z,17.33
2023-12-30T06:22:43.409Z,17.33
2023-12-30T06:23:43.425Z,17.34
2023-12-30T06:24:43.424Z,17.34
2023-12-30T06:25:43.489Z,17.34
2023-12-30T06:26:43.447Z,17.34
2023-12-30T06:27:43.463Z,17.34
2023-12-30T06:28:43.517Z,17.33
2023-12-30T06:29:43.496Z,17.34
2023-12-30T06:30:43.575Z,17.34
2023-12-30T06:31:43.707Z,17.33
2023-12-30T06:32:43.598Z,17.34
2023-12-30T06:33:43.595Z,17.34
2023-12-30T06:34:43.599Z,17.34
2023-12-30T06:35:43.568Z,17.33
2023-12-30T06:36:44.691Z,17.34
2023-12-30T06:37:43.618Z,17.34
2023-12-30T06:38:43.601Z,17.34
2023-12-30T06:39:43.616Z,17.34
2023-12-30T06:40:43.772Z,17.34
2023-12-30T06:41:43.623Z,17.34
2023-12-30T06:42:43.642Z,17.34
2023-12-30T06:43:43.710Z,17.34
2023-12-30T06:44:43.672Z,17.34
2023-12-30T06:45:43.743Z,17.35
2023-12-30T06:46:43.714Z,17.35
2023-12-30T06:47:43.778Z,17.33
2023-12-30T06:48:43.739Z,17.34
2023-12-30T06:49:43.792Z,17.34
2023-12-30T06:50:43.740Z,17.34
2023-12-30T06:51:43.750Z,17.34
2023-12-30T06:52:43.772Z,17.34
2023-12-30T06:53:43.783Z,17.33
2023-12-30T06:54:43.786Z,17.33
2023-12-30T06:55:48.010Z,17.34
2023-12-30T06:56:43.795Z,17.33
2023-12-30T06:57:43.804Z,17.33
2023-12-30T06:58:43.818Z,17.34
2023-12-30T06:59:43.859Z,17.33
2023-12-30T07:00:43.843Z,17.33
2023-12-30T07:01:43.875Z,17.33
2023-12-30T07:02:43.890Z,17.33
2023-12-30T07:03:43.930Z,17.34
2023-12-30T07:04:43.978Z,17.34
2023-12-30T07:05:43.908Z,17.34
2023-12-30T07:06:43.888Z,17.34
2023-12-30T07:07:43.889Z,17.33
2023-12-30T07:08:43.932Z,17.34
2023-12-30T07:09:43.913Z,17.33
2023-12-30T07:10:43.939Z,17.34
2023-12-30T07:11:43.993Z,17.34
2023-12-30T07:12:43.941Z,17.33
2023-12-30T07:13:44.017Z,17.33
2023-12-30T07:14:44.053Z,17.34
2023-12-30T07:15:43.965Z,17.33
2023-12-30T07:16:43.982Z,17.33
2023-12-30T07:17:44.009Z,17.34
2023-12-30T07:18:44.280Z,17.34
2023-12-30T07:19:44.053Z,17.34
2023-12-30T07:20:44.082Z,17.34
2023-12-30T07:21:44.055Z,17.34
2023-12-30T07:22:44.077Z,17.34
2023-12-30T07:23:44.093Z,17.33
2023-12-30T07:24:44.083Z,17.33
2023-12-30T07:25:44.108Z,17.33
2023-12-30T07:26:44.139Z,17.33
2023-12-30T07:27:44.138Z,17.34
2023-12-30T07:28:44.153Z,17.33
2023-12-30T07:29:44.212Z,17.34
2023-12-30T07:30:44.292Z,17.33
2023-12-30T07:31:44.273Z,17.34
2023-12-30T07:32:44.323Z,17.33
2023-12-30T07:33:44.474Z,17.33
2023-12-30T07:34:44.362Z,17.34
2023-12-30T07:35:44.376Z,17.33
2023-12-30T07:36:44.385Z,17.34
2023-12-30T07:37:44.449Z,17.34
2023-12-30T07:38:44.447Z,17.34
2023-12-30T07:39:44.471Z,17.34
2023-12-30T07:40:44.572Z,17.34
2023-12-30T07:41:44.534Z,17.34
2023-12-30T07:42:44.559Z,17.35
2023-12-30T07:43:44.795Z,17.34
2023-12-30T07:44:44.611Z,17.34
2023-12-30T07:45:44.648Z,17.34
2023-12-30T07:46:44.667Z,17.34
2023-12-30T07:47:44.718Z,17.34
2023-12-30T07:48:44.815Z,17.34
2023-12-30T07:49:44.888Z,17.34
2023-12-30T07:50:44.793Z,17.34
2023-12-30T07:51:44.830Z,17.34
2023-12-30T07:52:44.917Z,17.34
2023-12-30T07:53:44.891Z,17.34
2023-12-30T07:54:44.914Z,17.34
2023-12-30T07:55:44.970Z,17.34
2023-12-30T07:56:44.994Z,17.34
2023-12-30T07:57:44.993Z,17.34
2023-12-30T07:58:45.060Z,17.35
2023-12-30T07:59:45.059Z,17.34
2023-12-30T08:00:45.569Z,17.34
2023-12-30T08:01:46.045Z,17.35
2023-12-30T08:02:45.137Z,17.34
2023-12-30T08:03:45.228Z,17.34
2023-12-30T08:04:45.351Z,17.35
2023-12-30T08:05:45.265Z,17.35
2023-12-30T08:06:45.242Z,17.35
2023-12-30T08:07:46.186Z,17.36
2023-12-30T08:08:45.296Z,17.35
2023-12-30T08:09:45.333Z,17.36
2023-12-30T08:10:45.404Z,17.35
2023-12-30T08:12:45.414Z,17.35
2023-12-30T08:13:45.477Z,17.36
2023-12-30T08:14:45.556Z,17.36
2023-12-30T08:15:45.497Z,17.35
2023-12-30T08:16:45.501Z,17.35
2023-12-30T08:17:45.586Z,17.36
2023-12-30T08:18:45.603Z,17.36
2023-12-30T08:19:45.650Z,17.36
2023-12-30T08:20:45.621Z,17.37
2023-12-30T08:21:45.663Z,17.36
2023-12-30T08:22:45.719Z,17.35
2023-12-30T08:23:45.703Z,17.36
2023-12-30T08:24:45.727Z,17.36
2023-12-30T08:25:45.800Z,17.36
2023-12-30T08:26:45.782Z,17.36
2023-12-30T08:27:45.806Z,17.36
2023-12-30T08:28:45.827Z,17.36
2023-12-30T08:29:45.859Z,17.37
2023-12-30T08:30:45.931Z,17.36
2023-12-30T08:31:45.954Z,17.37
2023-12-30T08:32:45.990Z,17.36
2023-12-30T08:33:46.016Z,17.36
2023-12-30T08:34:46.024Z,17.36
2023-12-30T08:35:45.997Z,17.37
2023-12-30T08:36:46.430Z,17.37
2023-12-30T08:37:46.122Z,17.37
2023-12-30T08:38:46.071Z,17.36
2023-12-30T08:39:46.098Z,17.37
2023-12-30T08:40:46.187Z,17.36
2023-12-30T08:41:46.142Z,17.36
2023-12-30T08:42:46.169Z,17.36
2023-12-30T08:43:46.207Z,17.36
2023-12-30T08:44:46.216Z,17.37
2023-12-30T08:45:46.361Z,17.37
2023-12-30T08:46:46.417Z,17.38
2023-12-30T08:47:46.329Z,17.37
2023-12-30T08:48:46.342Z,17.37
2023-12-30T08:49:46.409Z,17.37
2023-12-30T08:50:46.340Z,17.37
2023-12-30T08:51:46.362Z,17.37
2023-12-30T08:52:46.422Z,17.37
2023-12-30T08:53:46.415Z,17.38
2023-12-30T08:54:46.423Z,17.37
2023-12-30T08:55:46.550Z,17.38
2023-12-30T08:56:46.470Z,17.38
2023-12-30T08:57:46.473Z,17.38
2023-12-30T08:58:46.496Z,17.38
2023-12-30T08:59:46.507Z,17.38
2023-12-30T09:00:46.566Z,17.38
2023-12-30T09:01:46.564Z,17.38
2023-12-30T09:02:46.571Z,17.38
2023-12-30T09:03:46.691Z,17.39
2023-12-30T09:04:46.648Z,17.39
2023-12-30T09:05:46.648Z,17.38
2023-12-30T09:06:46.701Z,17.39
2023-12-30T09:07:46.738Z,17.39
2023-12-30T09:08:46.712Z,17.40
2023-12-30T09:09:46.750Z,17.40
2023-12-30T09:10:46.826Z,17.40
2023-12-30T09:11:46.778Z,17.40
2023-12-30T09:12:46.822Z,17.41
2023-12-30T09:13:46.898Z,17.42
2023-12-30T09:14:46.839Z,17.43
2023-12-30T09:15:46.846Z,17.43
2023-12-30T09:16:47.075Z,17.43
2023-12-30T09:17:47.107Z,17.44
2023-12-30T09:18:47.021Z,17.45
2023-12-30T09:19:46.959Z,17.46
2023-12-30T09:20:46.954Z,17.47
2023-12-30T09:21:46.964Z,17.48
2023-12-30T09:22:46.983Z,17.49
2023-12-30T09:23:47.004Z,17.52
2023-12-30T09:24:47.025Z,17.54
2023-12-30T09:25:47.086Z,17.56
2023-12-30T09:26:47.074Z,17.58
2023-12-30T09:27:48.084Z,17.60
2023-12-30T09:28:47.152Z,17.63
2023-12-30T09:29:47.205Z,17.66
2023-12-30T09:30:47.275Z,17.68
2023-12-30T09:31:47.300Z,17.71
2023-12-30T09:32:47.382Z,17.72
2023-12-30T09:33:47.424Z,17.74
2023-12-30T09:34:47.453Z,17.77
2023-12-30T09:35:47.459Z,17.79
2023-12-30T09:36:47.535Z,17.81
2023-12-30T09:37:47.581Z,17.84
2023-12-30T09:38:47.660Z,17.84
2023-12-30T09:39:47.730Z,17.86
2023-12-30T09:40:47.825Z,17.87
2023-12-30T09:41:47.893Z,17.88
2023-12-30T09:42:47.966Z,17.89
2023-12-30T09:43:48.145Z,17.89
2023-12-30T09:44:48.116Z,17.90
2023-12-30T09:45:48.186Z,17.91
2023-12-30T09:46:48.301Z,17.91
2023-12-30T09:47:48.531Z,17.92
2023-12-30T09:48:48.600Z,17.92
2023-12-30T09:49:48.552Z,17.93
2023-12-30T09:50:48.552Z,17.94
2023-12-30T09:51:48.635Z,17.95
2023-12-30T09:52:48.675Z,17.94
2023-12-30T09:53:48.806Z,17.95
2023-12-30T09:54:49.777Z,17.96
2023-12-30T09:55:48.886Z,17.96
2023-12-30T09:56:48.978Z,17.97
2023-12-30T09:57:49.003Z,17.97
2023-12-30T09:58:49.070Z,17.98
2023-12-30T09:59:49.205Z,17.98
2023-12-30T10:00:49.688Z,17.98
2023-12-30T10:01:49.369Z,17.99
2023-12-30T10:02:49.434Z,17.99
2023-12-30T10:03:49.394Z,17.99
2023-12-30T10:04:49.455Z,17.99
2023-12-30T10:05:49.601Z,18.00
2023-12-30T10:06:49.573Z,18.00
2023-12-30T10:07:49.711Z,18.00
2023-12-30T10:08:49.698Z,18.01
2023-12-30T10:09:49.785Z,18.01
2023-12-30T10:10:49.826Z,18.01
2023-12-30T10:11:49.888Z,18.01
2023-12-30T10:12:49.942Z,18.02
2023-12-30T10:13:50.084Z,18.02
2023-12-30T10:14:50.099Z,18.02
2023-12-30T10:15:50.135Z,18.02
2023-12-30T10:16:50.200Z,18.02
2023-12-30T10:17:50.349Z,18.03
2023-12-30T10:18:51.091Z,18.04
2023-12-30T10:19:50.393Z,18.03
2023-12-30T10:20:50.433Z,18.04
2023-12-30T10:21:50.511Z,18.04
2023-12-30T10:22:50.578Z,18.05
2023-12-30T10:23:50.633Z,18.06
2023-12-30T10:24:50.669Z,18.06
2023-12-30T10:25:50.719Z,18.07
2023-12-30T10:26:50.795Z,18.07
2023-12-30T10:27:50.847Z,18.08
2023-12-30T10:28:50.921Z,18.07
2023-12-30T10:29:54.227Z,18.09
2023-12-30T10:30:52.018Z,18.08
2023-12-30T10:31:50.994Z,18.08
2023-12-30T10:32:51.043Z,18.09
2023-12-30T10:33:51.114Z,18.09
2023-12-30T10:34:51.137Z,18.10
2023-12-30T10:35:50.999Z,18.10
2023-12-30T10:36:51.006Z,18.10
2023-12-30T10:37:51.007Z,18.11
2023-12-30T10:38:51.009Z,18.11
2023-12-30T10:39:51.002Z,18.12
2023-12-30T10:40:53.642Z,18.12
2023-12-30T10:41:51.004Z,18.13
2023-12-30T10:42:51.001Z,18.14
2023-12-30T10:43:51.068Z,18.14
2023-12-30T10:44:51.009Z,18.14
2023-12-30T10:45:51.008Z,18.14
2023-12-30T10:46:53.344Z,18.15
2023-12-30T10:47:51.038Z,18.15
2023-12-30T10:48:51.016Z,18.16
2023-12-30T10:49:51.074Z,18.16
2023-12-30T10:50:51.014Z,18.16
2023-12-30T10:51:51.014Z,18.17
2023-12-30T10:52:52.742Z,18.17
2023-12-30T10:53:51.023Z,18.16
2023-12-30T10:54:51.048Z,18.16
2023-12-30T10:55:51.082Z,18.17
2023-12-30T10:56:51.038Z,18.17
2023-12-30T10:57:51.052Z,18.18
2023-12-30T10:58:51.938Z,18.18
2023-12-30T10:59:51.054Z,18.18
2023-12-30T11:00:51.096Z,18.18
2023-12-30T11:01:51.084Z,18.18
2023-12-30T11:02:51.054Z,18.18
2023-12-30T11:03:51.108Z,18.19
2023-12-30T11:04:53.446Z,18.19
2023-12-30T11:05:51.346Z,18.19
2023-12-30T11:06:51.437Z,18.20
2023-12-30T11:07:51.355Z,18.20
2023-12-30T11:08:51.425Z,18.20
2023-12-30T11:09:51.467Z,18.20
2023-12-30T11:10:51.673Z,18.21
2023-12-30T11:11:51.569Z,18.21
2023-12-30T11:12:51.612Z,18.21
2023-12-30T11:13:51.671Z,18.22
2023-12-30T11:14:51.704Z,18.22
2023-12-30T11:15:51.778Z,18.22
2023-12-30T11:16:51.919Z,18.22
2023-12-30T11:17:51.900Z,18.22
2023-12-30T11:18:52.020Z,18.23
2023-12-30T11:19:51.989Z,18.22
2023-12-30T11:20:52.031Z,18.23
2023-12-30T11:21:52.062Z,18.23
2023-12-30T11:22:52.126Z,18.23
2023-12-30T11:23:52.180Z,18.23
2023-12-30T11:24:52.236Z,18.24
2023-12-30T11:25:52.311Z,18.23
2023-12-30T11:26:52.336Z,18.24
2023-12-30T11:27:52.387Z,18.24
2023-12-30T11:28:52.450Z,18.24
2023-12-30T11:29:52.514Z,18.24
2023-12-30T11:30:52.666Z,18.24
2023-12-30T11:31:52.651Z,18.24
2023-12-30T11:32:52.707Z,18.24
2023-12-30T11:33:52.798Z,18.24
2023-12-30T11:34:52.858Z,18.24
2023-12-30T11:35:52.815Z,18.24
2023-12-30T11:36:52.870Z,18.24
2023-12-30T11:37:52.931Z,18.24
2023-12-30T11:38:53.578Z,18.23
2023-12-30T11:39:53.048Z,18.24
2023-12-30T11:40:53.181Z,18.23
2023-12-30T11:41:53.185Z,18.23
2023-12-30T11:42:53.195Z,18.23
2023-12-30T11:43:53.306Z,18.23
2023-12-30T11:44:55.438Z,18.23
2023-12-30T11:45:53.377Z,18.23
2023-12-30T11:46:53.417Z,18.21
2023-12-30T11:47:53.596Z,18.21
2023-12-30T11:48:53.586Z,18.21
2023-12-30T11:49:53.583Z,18.21
2023-12-30T11:50:53.621Z,18.21
2023-12-30T11:51:53.674Z,18.21
2023-12-30T11:52:53.743Z,18.20
2023-12-30T11:53:53.842Z,18.21
2023-12-30T11:54:53.931Z,18.20
2023-12-30T11:55:53.905Z,18.20
2023-12-30T11:56:53.941Z,18.20
2023-12-30T11:57:54.011Z,18.20
2023-12-30T11:58:54.066Z,18.19
2023-12-30T11:59:54.121Z,18.19
2023-12-30T12:00:54.228Z,18.20
2023-12-30T12:01:54.288Z,18.19
2023-12-30T12:02:54.290Z,18.19
2023-12-30T12:03:54.365Z,18.18
2023-12-30T12:04:54.522Z,18.19
2023-12-30T12:05:54.516Z,18.19
2023-12-30T12:06:54.544Z,18.18
2023-12-30T12:07:54.598Z,18.18
2023-12-30T12:08:54.664Z,18.18
2023-12-30T12:09:54.730Z,18.17
2023-12-30T12:10:54.870Z,18.17
2023-12-30T12:11:54.830Z,18.17
2023-12-30T12:12:54.979Z,18.17
2023-12-30T12:13:54.989Z,18.16
2023-12-30T12:14:55.033Z,18.16
2023-12-30T12:15:55.089Z,18.16
2023-12-30T12:16:55.137Z,18.16
2023-12-30T12:17:55.288Z,18.15
2023-12-30T12:18:55.390Z,18.15
2023-12-30T12:19:55.401Z,18.15
2023-12-30T12:20:55.382Z,18.14
2023-12-30T12:21:55.536Z,18.14
2023-12-30T12:22:55.551Z,18.14
2023-12-30T12:23:55.582Z,18.12
2023-12-30T12:24:55.686Z,18.14
2023-12-30T12:25:55.686Z,18.13
2023-12-30T12:26:55.826Z,18.12
2023-12-30T12:27:55.887Z,18.12
2023-12-30T12:28:55.848Z,18.11
2023-12-30T12:29:56.012Z,18.10
2023-12-30T12:30:56.081Z,18.11
2023-12-30T12:31:56.057Z,18.10
2023-12-30T12:32:56.194Z,18.10
2023-12-30T12:33:56.273Z,18.09
2023-12-30T12:34:56.235Z,18.09
2023-12-30T12:35:56.282Z,18.08
2023-12-30T12:36:56.388Z,18.08
2023-12-30T12:37:56.406Z,18.08
2023-12-30T12:38:56.450Z,18.06
2023-12-30T12:39:56.538Z,18.06
2023-12-30T12:40:56.573Z,18.06
2023-12-30T12:41:56.631Z,18.05
2023-12-30T12:42:56.816Z,18.05
2023-12-30T12:43:56.754Z,18.05
2023-12-30T12:44:56.844Z,18.05
2023-12-30T12:45:56.921Z,18.04
2023-12-30T12:46:56.955Z,18.04
2023-12-30T12:47:57.082Z,18.04
2023-12-30T12:48:57.131Z,18.03
2023-12-30T12:49:57.295Z,18.02
2023-12-30T12:50:57.155Z,18.01
2023-12-30T12:51:57.254Z,18.02
2023-12-30T12:52:57.278Z,18.02
2023-12-30T12:53:57.343Z,18.01